createdAt,value
2023-03-18T00:00:10.153Z,5.07
2023-03-18T00:02:39.245Z,4.95
2023-03-18T00:05:07.725Z,4.97
2023-03-18T00:07:36.246Z,6.00
2023-03-18T00:10:04.346Z,5.65
2023-03-18T00:12:32.454Z,5.83
2023-03-18T00:14:59.758Z,5.63
2023-03-18T00:17:26.483Z,5.95
2023-03-18T00:19:53.059Z,6.30
2023-03-18T00:22:19.532Z,5.68
2023-03-18T00:24:46.183Z,5.87
2023-03-18T00:27:12.593Z,5.40
2023-03-18T00:29:39.872Z,6.22
2023-03-18T00:32:06.825Z,6.00
2023-03-18T00:34:33.595Z,6.40
2023-03-18T00:37:00.325Z,5.93
2023-03-18T00:39:28.989Z,6.03
2023-03-18T00:41:56.887Z,5.82
2023-03-18T00:44:25.356Z,5.90
2023-03-18T00:46:52.042Z,5.80
2023-03-18T00:49:19.844Z,5.77
2023-03-18T00:51:46.694Z,6.80
2023-03-18T00:54:17.996Z,5.95
2023-03-18T00:56:44.794Z,6.55
2023-03-18T00:59:11.928Z,6.55
2023-03-18T01:01:39.046Z,6.17
2023-03-18T01:04:06.276Z,6.40
2023-03-18T01:06:35.620Z,5.85
2023-03-18T01:09:05.069Z,6.13
2023-03-18T01:11:31.842Z,6.65
2023-03-18T01:13:59.622Z,5.43
2023-03-18T01:16:26.633Z,5.90
2023-03-18T01:18:53.926Z,5.68
2023-03-18T01:21:21.040Z,5.85
2023-03-18T01:23:47.859Z,5.57
2023-03-18T01:26:14.620Z,5.20
2023-03-18T01:28:42.335Z,5.97
2023-03-18T01:31:09.576Z,6.93
2023-03-18T01:33:36.711Z,6.88
2023-03-18T01:36:03.890Z,6.53
2023-03-18T01:38:30.585Z,6.83
2023-03-18T01:40:59.131Z,6.72
2023-03-18T01:43:32.081Z,6.70
2023-03-18T01:46:00.512Z,6.95
2023-03-18T01:48:30.838Z,6.85
2023-03-18T01:51:01.562Z,7.07
2023-03-18T01:53:31.848Z,6.93
2023-03-18T01:55:59.223Z,7.32
2023-03-18T01:58:34.247Z,7.85
2023-03-18T02:01:20.149Z,6.63
2023-03-18T02:06:13.677Z,7.20
2023-03-18T02:08:40.933Z,7.82
2023-03-18T02:11:09.301Z,7.40
2023-03-18T02:13:39.716Z,8.00
2023-03-18T02:16:13.060Z,7.63
2023-03-18T02:18:52.072Z,7.70
2023-03-18T02:21:47.549Z,7.30
2023-03-18T02:24:47.373Z,7.83
2023-03-18T02:27:19.771Z,7.10
2023-03-18T02:29:48.457Z,8.18
2023-03-18T02:32:16.241Z,8.43
2023-03-18T02:34:44.669Z,9.20
2023-03-18T02:37:11.664Z,8.80
2023-03-18T02:39:38.434Z,8.18
2023-03-18T02:42:05.216Z,8.05
2023-03-18T02:44:32.188Z,8.48
2023-03-18T02:47:09.144Z,8.60
2023-03-18T02:49:35.739Z,8.57
2023-03-18T02:52:02.217Z,8.27
2023-03-18T02:54:30.353Z,8.50
2023-03-18T02:56:57.493Z,8.10
2023-03-18T02:59:25.582Z,7.75
2023-03-18T03:01:53.605Z,7.17
2023-03-18T03:04:23.711Z,8.30
2023-03-18T03:06:51.317Z,8.52
2023-03-18T03:09:18.534Z,8.63
2023-03-18T03:11:46.933Z,8.60
2023-03-18T03:14:14.943Z,10.00
2023-03-18T03:16:41.516Z,9.30
2023-03-18T03:19:08.491Z,9.30
2023-03-18T03:21:36.152Z,8.93
2023-03-18T03:24:04.457Z,10.18
2023-03-18T03:26:31.387Z,10.00
2023-03-18T03:28:58.501Z,9.77
2023-03-18T03:31:25.183Z,10.15
2023-03-18T03:33:51.662Z,10.63
2023-03-18T03:36:18.544Z,10.00
2023-03-18T03:38:45.409Z,9.93
2023-03-18T03:41:12.780Z,9.68
2023-03-18T03:43:40.410Z,9.77
2023-03-18T03:46:08.153Z,10.05
2023-03-18T03:48:34.920Z,9.60
2023-03-18T03:51:02.182Z,9.07
2023-03-18T03:53:28.962Z,9.68
2023-03-18T03:55:58.962Z,9.27
2023-03-18T03:58:26.364Z,8.70
2023-03-18T04:00:53.002Z,9.68
2023-03-18T04:03:19.823Z,9.23
2023-03-18T04:05:46.553Z,8.95
2023-03-18T04:08:13.098Z,8.80
2023-03-18T04:10:40.073Z,9.40
2023-03-18T04:13:06.963Z,9.40
2023-03-18T04:15:34.290Z,8.97
2023-03-18T04:18:06.653Z,8.63
2023-03-18T04:20:37.728Z,9.00
2023-03-18T04:23:04.369Z,9.48
2023-03-18T04:25:30.976Z,9.35
2023-03-18T04:27:57.852Z,8.70
2023-03-18T04:30:26.412Z,9.70
2023-03-18T04:32:53.545Z,9.38
2023-03-18T04:35:21.208Z,8.65
2023-03-18T04:37:48.796Z,9.15
2023-03-18T04:40:15.665Z,9.23
2023-03-18T04:42:42.658Z,8.80
2023-03-18T04:45:09.500Z,9.02
2023-03-18T04:47:37.141Z,9.45
2023-03-18T04:50:04.652Z,9.85
2023-03-18T04:52:31.675Z,8.77
2023-03-18T04:54:58.323Z,8.50
2023-03-18T04:57:25.226Z,8.98
2023-03-18T04:59:52.193Z,9.10
2023-03-18T05:02:19.115Z,9.40
2023-03-18T05:04:45.676Z,8.40
2023-03-18T05:07:16.430Z,8.90
2023-03-18T05:09:43.656Z,9.02
2023-03-18T05:12:19.211Z,8.55
2023-03-18T05:14:46.148Z,9.43
2023-03-18T05:17:16.065Z,8.37
2023-03-18T05:19:47.833Z,9.27
2023-03-18T05:22:17.671Z,9.38
2023-03-18T05:24:46.052Z,9.95
2023-03-18T05:27:18.531Z,9.23
2023-03-18T05:29:46.177Z,8.83
2023-03-18T05:32:14.678Z,9.80
2023-03-18T05:34:41.939Z,9.18
2023-03-18T05:37:11.193Z,8.93
2023-03-18T05:39:38.148Z,8.75
2023-03-18T05:42:05.554Z,9.17
2023-03-18T05:44:32.665Z,8.57
2023-03-18T05:46:59.319Z,8.73
2023-03-18T05:49:27.280Z,9.60
2023-03-18T05:51:54.940Z,8.63
2023-03-18T05:54:22.034Z,9.93
2023-03-18T05:56:48.591Z,10.05
2023-03-18T05:59:15.376Z,9.73
2023-03-18T06:01:42.250Z,9.85
2023-03-18T06:04:09.236Z,9.10
2023-03-18T06:06:39.602Z,9.37
2023-03-18T06:09:08.036Z,9.50
2023-03-18T06:11:35.026Z,9.50
2023-03-18T06:14:02.058Z,9.02
2023-03-18T06:16:28.872Z,9.90
2023-03-18T06:18:55.516Z,9.27
2023-03-18T06:21:22.034Z,8.48
2023-03-18T06:23:48.760Z,9.25
2023-03-18T06:26:15.343Z,9.32
2023-03-18T06:28:41.937Z,8.55
2023-03-18T06:31:08.528Z,8.83
2023-03-18T06:33:35.344Z,9.45
2023-03-18T06:36:02.505Z,9.90
2023-03-18T06:38:29.192Z,8.50
2023-03-18T06:40:56.722Z,8.45
2023-03-18T06:43:23.514Z,8.30
2023-03-18T06:45:50.727Z,9.00
2023-03-18T06:48:17.972Z,7.82
2023-03-18T06:50:44.641Z,9.02
2023-03-18T06:53:11.109Z,8.82
2023-03-18T06:55:38.095Z,8.17
2023-03-18T06:58:05.633Z,8.55
2023-03-18T07:00:34.460Z,9.63
2023-03-18T07:03:01.473Z,8.82
2023-03-18T07:05:28.748Z,7.93
2023-03-18T07:07:55.271Z,10.00
2023-03-18T07:10:24.587Z,9.15
2023-03-18T07:12:52.299Z,9.45
2023-03-18T07:15:21.721Z,10.15
2023-03-18T07:17:49.047Z,8.95
2023-03-18T07:20:15.941Z,9.90
2023-03-18T07:22:44.031Z,9.75
2023-03-18T07:25:11.300Z,9.13
2023-03-18T07:27:37.801Z,9.82
2023-03-18T07:30:04.631Z,9.43
2023-03-18T07:32:31.658Z,10.37
2023-03-18T07:34:59.247Z,10.07
2023-03-18T07:37:26.198Z,10.40
2023-03-18T07:39:53.135Z,10.63
2023-03-18T07:42:19.561Z,10.40
2023-03-18T07:44:46.017Z,9.83
2023-03-18T07:47:14.661Z,11.35
2023-03-18T07:49:41.822Z,10.15
2023-03-18T07:52:08.904Z,10.45
2023-03-18T07:54:35.645Z,10.98
2023-03-18T07:57:03.925Z,10.73
2023-03-18T07:59:30.784Z,11.23
2023-03-18T08:01:57.632Z,11.00
2023-03-18T08:04:25.098Z,10.27
2023-03-18T08:06:51.831Z,10.98
2023-03-18T08:09:18.447Z,11.80
2023-03-18T08:11:44.889Z,12.32
2023-03-18T08:14:11.882Z,11.25
2023-03-18T08:16:38.363Z,12.30
2023-03-18T08:19:04.963Z,11.65
2023-03-18T08:21:31.624Z,11.30
2023-03-18T08:23:58.204Z,11.73
2023-03-18T08:26:24.804Z,10.57
2023-03-18T08:28:51.409Z,11.20
2023-03-18T08:31:18.306Z,9.63
2023-03-18T08:33:44.899Z,9.47
2023-03-18T08:36:12.050Z,8.93
2023-03-18T08:38:39.178Z,8.85
2023-03-18T08:41:06.737Z,9.43
2023-03-18T08:43:33.418Z,8.48
2023-03-18T08:45:59.981Z,8.63
2023-03-18T08:48:26.547Z,8.43
2023-03-18T08:50:53.670Z,8.23
2023-03-18T08:53:20.274Z,7.38
2023-03-18T08:55:47.407Z,7.97
2023-03-18T08:58:14.242Z,8.23
2023-03-18T09:00:41.772Z,8.10
2023-03-18T09:03:09.189Z,9.68
2023-03-18T09:05:36.059Z,8.75
2023-03-18T09:08:03.911Z,9.27
2023-03-18T09:10:30.955Z,8.47
2023-03-18T09:12:57.626Z,8.90
2023-03-18T09:15:24.168Z,9.25
2023-03-18T09:18:08.115Z,10.60
2023-03-18T09:20:37.799Z,9.25
2023-03-18T09:23:04.673Z,8.90
2023-03-18T09:25:31.459Z,8.80
2023-03-18T09:27:58.468Z,8.73
2023-03-18T09:30:26.454Z,9.13
2023-03-18T09:32:54.129Z,8.95
2023-03-18T09:35:20.752Z,9.10
2023-03-18T09:37:47.688Z,9.38
2023-03-18T09:40:29.539Z,10.23
2023-03-18T09:43:23.240Z,9.55
2023-03-18T09:46:24.908Z,9.27
2023-03-18T09:49:01.731Z,8.57
2023-03-18T09:51:53.454Z,9.18
2023-03-18T09:54:42.615Z,7.85
2023-03-18T09:57:25.215Z,8.85
2023-03-18T09:59:58.606Z,8.35
2023-03-18T10:02:36.640Z,8.57
2023-03-18T10:05:13.831Z,8.20
2023-03-18T10:07:43.387Z,8.23
2023-03-18T10:10:24.370Z,7.30
2023-03-18T10:12:57.220Z,7.40
2023-03-18T10:15:41.582Z,6.43
2023-03-18T10:18:24.102Z,7.28
2023-03-18T10:20:53.167Z,6.72
2023-03-18T10:23:26.774Z,7.10
2023-03-18T10:25:59.012Z,6.90
2023-03-18T10:28:47.350Z,6.23
2023-03-18T10:31:22.766Z,5.97
2023-03-18T10:34:17.376Z,5.88
2023-03-18T10:36:57.590Z,5.03
2023-03-18T10:39:27.142Z,5.55
2023-03-18T10:41:55.340Z,5.10
2023-03-18T10:44:33.219Z,5.25
2023-03-18T10:47:06.411Z,5.00
2023-03-18T10:49:38.594Z,5.50
2023-03-18T10:52:21.365Z,5.32
2023-03-18T10:54:52.440Z,5.17
2023-03-18T10:57:21.589Z,5.18
2023-03-18T10:59:50.533Z,4.43
2023-03-18T11:02:22.854Z,4.25
2023-03-18T11:05:00.016Z,4.10
2023-03-18T11:07:28.310Z,4.23
2023-03-18T11:10:09.647Z,4.40
2023-03-18T11:12:36.441Z,3.50
2023-03-18T11:15:10.348Z,4.10
2023-03-18T11:17:40.579Z,3.92
2023-03-18T11:20:21.944Z,4.10
2023-03-18T11:22:52.057Z,4.15
2023-03-18T11:25:26.587Z,4.15
2023-03-18T11:27:59.069Z,4.30
2023-03-18T11:30:34.931Z,4.88
2023-03-18T11:33:10.786Z,4.63
2023-03-18T11:35:52.513Z,4.50
2023-03-18T11:38:18.946Z,3.75
2023-03-18T11:40:46.350Z,4.32
2023-03-18T11:43:22.184Z,4.53
2023-03-18T11:45:59.379Z,3.63
2023-03-18T11:48:33.342Z,4.22
2023-03-18T11:51:30.300Z,3.42
2023-03-18T11:54:03.019Z,3.50
2023-03-18T11:56:39.070Z,3.92
2023-03-18T11:59:27.807Z,4.07
2023-03-18T12:02:20.469Z,3.90
2023-03-18T12:05:01.271Z,4.10
2023-03-18T12:07:50.237Z,4.15
2023-03-18T12:10:28.376Z,4.32
2023-03-18T12:13:09.690Z,4.00
2023-03-18T12:16:08.524Z,3.70
2023-03-18T12:18:56.393Z,3.47
2023-03-18T12:21:47.656Z,3.72
2023-03-18T12:24:47.006Z,3.83
2023-03-18T12:28:09.075Z,3.90
2023-03-18T12:30:53.509Z,3.60
2023-03-18T12:33:48.014Z,3.80
2023-03-18T12:36:26.556Z,3.28
2023-03-18T12:39:17.946Z,3.53
2023-03-18T12:42:02.639Z,3.60
2023-03-18T12:44:44.992Z,3.30
2023-03-18T12:47:22.484Z,3.58
2023-03-18T12:50:21.810Z,3.25
2023-03-18T12:52:58.938Z,3.78
2023-03-18T12:55:32.982Z,3.30
2023-03-18T12:58:05.980Z,3.33
2023-03-18T13:00:35.080Z,2.80
2023-03-18T13:03:27.522Z,3.58
2023-03-18T13:06:10.163Z,2.70
2023-03-18T13:08:36.565Z,2.20
2023-03-18T13:11:29.953Z,2.00
2023-03-18T13:14:02.892Z,2.38
2023-03-18T13:16:31.551Z,2.63
2023-03-18T13:18:59.680Z,2.20
2023-03-18T13:21:31.053Z,2.60
2023-03-18T13:24:42.606Z,2.58
2023-03-18T13:27:28.716Z,3.20
2023-03-18T13:30:02.103Z,3.00
2023-03-18T13:32:38.964Z,3.53
2023-03-18T13:35:23.000Z,3.50
2023-03-18T13:38:23.309Z,3.72
2023-03-18T13:41:14.535Z,3.63
2023-03-18T13:43:49.170Z,3.53
2023-03-18T13:46:23.500Z,3.75
2023-03-18T13:48:56.278Z,3.60
2023-03-18T13:51:25.777Z,3.40
2023-03-18T13:53:56.574Z,3.50
2023-03-18T13:56:32.119Z,3.50
2023-03-18T13:59:02.934Z,3.08
2023-03-18T14:01:36.302Z,3.03
2023-03-18T14:04:30.370Z,2.88
2023-03-18T14:07:13.689Z,3.00
2023-03-18T14:10:15.387Z,2.63
2023-03-18T14:12:47.442Z,2.35
2023-03-18T14:15:14.514Z,2.63
2023-03-18T14:17:47.013Z,2.50
2023-03-18T14:20:19.702Z,2.38
2023-03-18T14:22:48.784Z,2.45
2023-03-18T14:25:18.329Z,2.30
2023-03-18T14:27:51.688Z,2.40
2023-03-18T14:30:46.025Z,2.05
2023-03-18T14:33:18.711Z,1.95
2023-03-18T14:35:54.515Z,1.48
2023-03-18T14:38:44.257Z,1.33
2023-03-18T14:41:19.659Z,1.40
2023-03-18T14:43:58.023Z,0.90
2023-03-18T14:46:31.821Z,1.00
2023-03-18T14:48:58.767Z,0.82
2023-03-18T14:51:28.100Z,0.85
2023-03-18T14:54:04.110Z,0.93
2023-03-18T14:56:36.298Z,0.70
2023-03-18T14:59:02.790Z,1.38
2023-03-18T15:01:44.153Z,1.10
2023-03-18T15:04:18.562Z,1.52
2023-03-18T15:06:45.511Z,1.57
2023-03-18T15:09:24.374Z,2.10
2023-03-18T15:11:50.882Z,1.92
2023-03-18T15:14:31.366Z,2.50
2023-03-18T15:17:04.030Z,2.97
2023-03-18T15:19:32.616Z,2.40
2023-03-18T15:22:04.527Z,1.92
2023-03-18T15:24:31.422Z,1.80
2023-03-18T15:27:14.841Z,1.70
2023-03-18T15:29:52.615Z,2.00
2023-03-18T15:32:28.364Z,1.80
2023-03-18T15:34:58.137Z,1.98
2023-03-18T15:37:30.864Z,2.70
2023-03-18T15:39:58.905Z,2.00
2023-03-18T15:42:25.625Z,1.70
2023-03-18T15:44:59.634Z,1.63
2023-03-18T15:47:33.287Z,1.52
2023-03-18T15:50:09.563Z,1.40
2023-03-18T15:52:41.864Z,1.45
2023-03-18T15:55:29.136Z,1.38
2023-03-18T15:57:57.662Z,1.43
2023-03-18T16:00:25.321Z,1.52
2023-03-18T16:02:51.904Z,1.15
2023-03-18T16:05:30.786Z,1.33
2023-03-18T16:07:57.551Z,1.30
2023-03-18T16:10:26.179Z,1.90
2023-03-18T16:12:55.207Z,1.15
2023-03-18T16:15:24.091Z,1.48
2023-03-18T16:17:53.506Z,1.10
2023-03-18T16:20:24.050Z,1.30
2023-03-18T16:22:51.961Z,1.10
2023-03-18T16:25:18.993Z,1.30
2023-03-18T16:27:48.657Z,1.23
2023-03-18T16:30:29.723Z,1.38
2023-03-18T16:32:57.860Z,1.30
2023-03-18T16:35:34.038Z,1.43
2023-03-18T16:38:01.760Z,1.48
2023-03-18T16:40:30.816Z,1.52
2023-03-18T16:42:57.898Z,1.88
2023-03-18T16:45:31.079Z,1.48
2023-03-18T16:48:03.110Z,1.77
2023-03-18T16:50:34.872Z,1.83
2023-03-18T16:53:02.287Z,1.30
2023-03-18T16:55:29.559Z,1.20
2023-03-18T16:57:59.489Z,1.70
2023-03-18T17:03:13.685Z,1.40
2023-03-18T17:05:40.849Z,1.60
2023-03-18T17:08:07.277Z,1.40
2023-03-18T17:10:34.412Z,1.80
2023-03-18T17:13:05.960Z,1.53
2023-03-18T17:15:44.072Z,1.70
2023-03-18T17:18:16.094Z,2.30
2023-03-18T17:20:44.139Z,2.17
2023-03-18T17:23:20.625Z,1.90
2023-03-18T17:25:55.371Z,1.80
2023-03-18T17:28:38.019Z,1.65
2023-03-18T17:31:06.266Z,1.67
2023-03-18T17:33:35.661Z,2.10
2023-03-18T17:36:02.362Z,1.80
2023-03-18T17:38:31.165Z,1.87
2023-03-18T17:40:59.588Z,1.83
2023-03-18T17:43:32.619Z,1.77
2023-03-18T17:46:00.590Z,2.03
2023-03-18T17:48:29.153Z,1.65
2023-03-18T17:51:01.985Z,1.87
2023-03-18T17:53:49.502Z,1.70
2023-03-18T17:56:18.462Z,2.03
2023-03-18T17:58:47.737Z,1.67
2023-03-18T18:01:17.558Z,2.00
2023-03-18T18:03:44.267Z,1.93
2023-03-18T18:06:19.199Z,1.85
2023-03-18T18:08:45.976Z,2.08
2023-03-18T18:11:21.960Z,2.00
2023-03-18T18:13:49.206Z,1.92
2023-03-18T18:16:16.017Z,1.90
2023-03-18T18:18:42.667Z,2.70
2023-03-18T18:21:18.065Z,2.00
2023-03-18T18:23:45.475Z,2.08
2023-03-18T18:26:18.424Z,2.10
2023-03-18T18:28:48.097Z,2.33
2023-03-18T18:31:17.565Z,2.53
2023-03-18T18:33:45.534Z,2.47
2023-03-18T18:36:13.650Z,3.25
2023-03-18T18:38:40.656Z,2.97
2023-03-18T18:41:07.374Z,3.47
2023-03-18T18:43:33.801Z,3.80
2023-03-18T18:46:00.400Z,3.42
2023-03-18T18:48:31.148Z,3.72
2023-03-18T18:50:58.561Z,3.95
2023-03-18T18:53:27.853Z,4.43
2023-03-18T18:55:57.323Z,3.85
2023-03-18T18:58:28.819Z,3.42
2023-03-18T19:00:55.931Z,3.83
2023-03-18T19:03:25.476Z,3.47
2023-03-18T19:05:54.584Z,3.23
2023-03-18T19:08:24.995Z,3.45
2023-03-18T19:10:59.927Z,3.30
2023-03-18T19:13:29.522Z,3.45
2023-03-18T19:15:59.327Z,3.13
2023-03-18T19:18:32.137Z,2.90
2023-03-18T19:20:58.700Z,3.20
2023-03-18T19:23:27.960Z,2.67
2023-03-18T19:25:56.257Z,3.35
2023-03-18T19:28:47.676Z,3.30
2023-03-18T19:31:22.210Z,3.43
2023-03-18T19:33:52.130Z,3.53
2023-03-18T19:36:37.566Z,5.10
2023-03-18T19:39:04.509Z,4.07
2023-03-18T19:41:30.894Z,3.88
2023-03-18T19:44:05.750Z,3.93
2023-03-18T19:46:37.091Z,3.03
2023-03-18T19:49:14.364Z,3.30
2023-03-18T19:51:41.515Z,4.00
2023-03-18T19:54:23.949Z,4.13
2023-03-18T19:56:52.544Z,4.20
2023-03-18T19:59:22.871Z,2.88
2023-03-18T20:01:49.625Z,2.63
2023-03-18T20:04:18.732Z,2.13
2023-03-18T20:06:50.308Z,1.55
2023-03-18T20:09:19.862Z,1.90
2023-03-18T20:11:48.582Z,1.63
2023-03-18T20:14:30.512Z,1.42
2023-03-18T20:17:05.812Z,1.40
2023-03-18T20:19:32.321Z,1.02
2023-03-18T20:21:59.185Z,0.90
2023-03-18T20:24:29.456Z,0.80
2023-03-18T20:26:56.031Z,0.70
2023-03-18T20:29:25.256Z,0.50
2023-03-18T20:31:51.787Z,0.70
2023-03-18T20:34:18.641Z,0.43
2023-03-18T20:36:45.524Z,0.30
2023-03-18T20:39:19.118Z,0.45
2023-03-18T20:41:46.620Z,0.45
2023-03-18T20:44:13.863Z,0.52
2023-03-18T20:46:41.710Z,0.43
2023-03-18T20:49:08.373Z,0.40
2023-03-18T20:51:40.778Z,0.28
2023-03-18T20:54:26.569Z,0.30
2023-03-18T20:56:52.996Z,0.30
2023-03-18T20:59:19.439Z,0.40
2023-03-18T21:01:46.507Z,0.30
2023-03-18T21:04:13.489Z,0.30
2023-03-18T21:06:42.143Z,0.40
2023-03-18T21:09:13.299Z,0.30
2023-03-18T21:11:40.108Z,0.40
2023-03-18T21:14:06.779Z,0.40
2023-03-18T21:16:36.451Z,0.30
2023-03-18T21:19:04.183Z,0.30
2023-03-18T21:21:48.844Z,0.35
2023-03-18T21:24:35.878Z,0.30
2023-03-18T21:27:05.235Z,0.30
2023-03-18T21:29:32.998Z,0.32
2023-03-18T21:32:00.029Z,0.30
2023-03-18T21:34:26.844Z,0.30
2023-03-18T21:36:53.211Z,0.50
2023-03-18T21:39:20.999Z,0.50
2023-03-18T21:41:47.478Z,0.50
2023-03-18T21:44:13.899Z,0.50
2023-03-18T21:46:40.552Z,0.68
2023-03-18T21:49:07.126Z,0.60
2023-03-18T21:51:41.181Z,0.52
2023-03-18T21:54:17.790Z,0.47
2023-03-18T21:56:45.567Z,0.50
2023-03-18T21:59:12.120Z,0.40
2023-03-18T22:01:39.058Z,0.80
2023-03-18T22:04:06.199Z,0.70
2023-03-18T22:06:33.449Z,0.60
2023-03-18T22:09:00.046Z,0.50
2023-03-18T22:11:27.783Z,0.70
2023-03-18T22:13:54.574Z,0.63
2023-03-18T22:16:21.699Z,0.70
2023-03-18T22:18:48.336Z,0.57
2023-03-18T22:21:25.187Z,0.70
2023-03-18T22:23:52.651Z,0.50
2023-03-18T22:26:20.539Z,0.77
2023-03-18T22:28:47.647Z,0.70
2023-03-18T22:31:18.931Z,0.75
2023-03-18T22:33:46.369Z,0.80
2023-03-18T22:36:14.657Z,0.73
2023-03-18T22:38:41.354Z,0.53
2023-03-18T22:41:19.252Z,0.90
2023-03-18T22:43:46.259Z,0.73
2023-03-18T22:46:12.830Z,0.85
2023-03-18T22:48:39.545Z,0.80
2023-03-18T22:51:06.807Z,0.53
2023-03-18T22:53:38.077Z,0.98
2023-03-18T22:56:11.373Z,0.90
2023-03-18T22:58:38.653Z,0.70
2023-03-18T23:01:06.273Z,0.57
2023-03-18T23:03:35.047Z,0.60
2023-03-18T23:06:02.960Z,1.00
2023-03-18T23:08:29.903Z,0.90
2023-03-18T23:11:00.247Z,0.90
2023-03-18T23:13:29.805Z,1.00
2023-03-18T23:15:58.263Z,0.70
2023-03-18T23:18:25.394Z,0.85
2023-03-18T23:20:52.491Z,1.00
2023-03-18T23:23:20.963Z,1.00
2023-03-18T23:25:48.969Z,1.00
2023-03-18T23:28:17.532Z,0.80
2023-03-18T23:30:47.729Z,0.85
2023-03-18T23:33:14.324Z,0.90
2023-03-18T23:35:41.737Z,0.95
2023-03-18T23:38:08.250Z,0.70
2023-03-18T23:40:34.721Z,0.80
2023-03-18T23:43:01.826Z,0.90
2023-03-18T23:45:28.731Z,0.88
2023-03-18T23:47:56.027Z,0.70
2023-03-18T23:50:22.674Z,0.80
2023-03-18T23:52:49.150Z,1.00
2023-03-18T23:55:33.181Z,0.98
2023-03-18T23:58:00.437Z,1.13
